Time;durP1;ratioP1;P1;durP2;ratioP2;P2;SDS_P1;SDS_P2;PMS_P1;PMS_P2;Temp;Humidity;BMP_temperature;BMP_pressure;BME280_temperature;BME280_humidity;BME280_pressure;Samples;Min_cycle;Max_cycle;Signal;HPM_P1;HPM_P2
2021/01/22 00:02:01;;;;;;;2.07;1.07;;;;;;;;;;5035309;28;20206;-78
2021/01/22 00:04:27;;;;;;;2.55;1.13;;;;;;;;;;5034453;28;20477;-78
2021/01/22 00:06:53;;;;;;;1.65;1.10;;;;;;;;;;5035764;28;20190;-78
2021/01/22 00:09:19;;;;;;;1.65;1.10;;;;;;;;;;5029775;28;20232;-78
2021/01/22 00:11:45;;;;;;;2.78;1.13;;;;;;;;;;5033987;28;20218;-78
2021/01/22 00:14:11;;;;;;;2.53;1.13;;;;;;;;;;5020804;28;20262;-78
2021/01/22 00:16:37;;;;;;;1.57;1.10;;;;;;;;;;5024289;28;20217;-78
2021/01/22 00:19:03;;;;;;;1.10;0.70;;;;;;;;;;5034416;28;20417;-78
2021/01/22 00:21:29;;;;;;;1.05;0.95;;;;;;;;;;5033754;28;20448;-78
2021/01/22 00:23:55;;;;;;;2.78;1.17;;;;;;;;;;5032494;28;20186;-78
2021/01/22 00:26:21;;;;;;;2.65;0.93;;;;;;;;;;5034675;28;20198;-78
2021/01/22 00:28:48;;;;;;;1.10;1.00;;;;;;;;;;5035043;28;20606;-78
2021/01/22 00:31:13;;;;;;;1.63;0.90;;;;;;;;;;5033861;28;20210;-78
2021/01/22 00:33:39;;;;;;;3.17;0.90;;;;;;;;;;5033782;28;20197;-78
2021/01/22 00:36:05;;;;;;;1.73;1.03;;;;;;;;;;5033538;28;20421;-78
2021/01/22 00:38:31;;;;;;;1.00;0.85;;;;;;;;;;5033817;28;20417;-78
2021/01/22 00:40:57;;;;;;;3.10;1.30;;;;;;;;;;5033386;28;20276;-78
2021/01/22 00:43:23;;;;;;;3.53;1.55;;;;;;;;;;5029033;28;20559;-78
2021/01/22 00:45:50;;;;;;;2.40;1.23;;;;;;;;;;5033147;28;20209;-78
2021/01/22 00:48:16;;;;;;;1.50;1.08;;;;;;;;;;5026802;28;20476;-78
2021/01/22 00:50:41;;;;;;;2.00;1.23;;;;;;;;;;5013501;28;20207;-78
2021/01/22 00:53:07;;;;;;;2.40;1.10;;;;;;;;;;5015493;28;20423;-78
2021/01/22 00:55:33;;;;;;;0.97;0.87;;;;;;;;;;5032701;28;20409;-78
2021/01/22 00:57:59;;;;;;;3.90;1.60;;;;;;;;;;5031975;28;20427;-78
2021/01/22 01:00:25;;;;;;;4.00;1.40;;;;;;;;;;5032768;28;20456;-77
2021/01/22 01:02:51;;;;;;;1.40;1.00;;;;;;;;;;5027855;28;20422;-78
2021/01/22 01:05:17;;;;;;;2.87;1.33;;;;;;;;;;5032834;28;20181;-78
2021/01/22 01:07:43;;;;;;;12.38;2.75;;;;;;;;;;5032686;28;20494;-78
2021/01/22 01:10:09;;;;;;;1.37;0.83;;;;;;;;;;5032575;28;20167;-77
2021/01/22 01:12:36;;;;;;;1.70;1.20;;;;;;;;;;5030983;28;20837;-78
2021/01/22 01:15:03;;;;;;;2.45;2.15;;;;;;;;;;5031890;28;20207;-78
2021/01/22 01:17:29;;;;;;;2.80;0.85;;;;;;;;;;5032657;28;20638;-78
2021/01/22 01:19:55;;;;;;;1.37;0.80;;;;;;;;;;5032279;28;20190;-78
2021/01/22 01:22:21;;;;;;;2.07;1.10;;;;;;;;;;5030290;28;20439;-78
2021/01/22 01:24:47;;;;;;;1.63;1.07;;;;;;;;;;5013386;28;20511;-78
2021/01/22 01:27:13;;;;;;;1.33;0.90;;;;;;;;;;5024459;28;20433;-78
2021/01/22 01:29:39;;;;;;;1.20;1.10;;;;;;;;;;5014829;28;20429;-78
2021/01/22 01:32:05;;;;;;;1.70;1.27;;;;;;;;;;5027669;28;20574;-78
2021/01/22 01:34:31;;;;;;;3.53;1.38;;;;;;;;;;5031043;28;20990;-78
2021/01/22 01:36:57;;;;;;;0.90;0.80;;;;;;;;;;5050633;28;20201;-78
2021/01/22 01:39:22;;;;;;;3.30;1.10;;;;;;;;;;5038871;28;20479;-78
2021/01/22 01:41:48;;;;;;;3.13;0.80;;;;;;;;;;5036415;28;20449;-78
2021/01/22 01:44:14;;;;;;;1.37;1.27;;;;;;;;;;5030127;28;20417;-78
2021/01/22 01:46:40;;;;;;;2.43;1.20;;;;;;;;;;5031352;28;20428;-78
2021/01/22 01:49:06;;;;;;;1.93;1.00;;;;;;;;;;5013894;28;20428;-78
2021/01/22 01:51:32;;;;;;;0.90;0.77;;;;;;;;;;5011925;28;20838;-78
2021/01/22 01:53:59;;;;;;;1.80;1.00;;;;;;;;;;5027353;28;20257;-78
2021/01/22 01:56:25;;;;;;;3.58;0.80;;;;;;;;;;5024392;28;20182;-78
2021/01/22 01:58:51;;;;;;;1.25;1.02;;;;;;;;;;5032209;28;20256;-78
2021/01/22 02:01:17;;;;;;;2.40;1.50;;;;;;;;;;5031189;28;20277;-81
2021/01/22 02:03:43;;;;;;;0.95;0.80;;;;;;;;;;5020003;28;20426;-79
2021/01/22 02:06:09;;;;;;;6.13;1.27;;;;;;;;;;5028589;28;20607;-79
2021/01/22 02:08:36;;;;;;;1.83;1.30;;;;;;;;;;5025548;28;20451;-79
2021/01/22 02:11:02;;;;;;;3.25;1.00;;;;;;;;;;5018483;28;20753;-79
2021/01/22 02:13:32;;;;;;;1.30;1.20;;;;;;;;;;5030479;28;20189;-79
2021/01/22 02:15:59;;;;;;;1.30;0.98;;;;;;;;;;5025115;28;20202;-78
2021/01/22 02:18:25;;;;;;;1.20;0.85;;;;;;;;;;5013320;28;20635;-79
2021/01/22 02:21:03;;;;;;;1.10;0.98;;;;;;;;;;5031096;28;20202;-79
2021/01/22 02:23:31;;;;;;;1.67;1.33;;;;;;;;;;5031087;28;20232;-79
2021/01/22 02:26:17;;;;;;;2.53;1.10;;;;;;;;;;5028177;28;20265;-80
2021/01/22 02:28:44;;;;;;;1.10;1.00;;;;;;;;;;5018274;28;20677;-80
2021/01/22 02:31:12;;;;;;;2.55;1.35;;;;;;;;;;5028755;28;20212;-79
2021/01/22 02:33:39;;;;;;;1.35;1.25;;;;;;;;;;5032731;28;20182;-79
2021/01/22 02:36:06;;;;;;;2.25;2.05;;;;;;;;;;5030915;28;20185;-79
2021/01/22 02:38:32;;;;;;;2.50;2.20;;;;;;;;;;5034052;28;20650;-81
2021/01/22 02:40:58;;;;;;;2.28;2.08;;;;;;;;;;5031148;28;20285;-80
2021/01/22 02:43:26;;;;;;;4.40;1.90;;;;;;;;;;5023072;28;20186;-79
2021/01/22 02:45:52;;;;;;;2.25;2.15;;;;;;;;;;5014282;28;20190;-82
2021/01/22 02:48:18;;;;;;;2.92;2.72;;;;;;;;;;5014649;28;20766;-79
2021/01/22 02:50:47;;;;;;;2.30;2.10;;;;;;;;;;5019588;28;20208;-79
2021/01/22 02:53:13;;;;;;;2.10;2.00;;;;;;;;;;5033925;28;20179;-79
2021/01/22 02:55:39;;;;;;;5.07;2.00;;;;;;;;;;5017973;28;20673;-79
2021/01/22 02:58:23;;;;;;;2.88;2.67;;;;;;;;;;5032934;28;20182;-79
2021/01/22 03:00:49;;;;;;;3.13;2.92;;;;;;;;;;5033330;28;20242;-80
2021/01/22 03:03:26;;;;;;;2.90;2.70;;;;;;;;;;5033673;28;20184;-79
2021/01/22 03:05:56;;;;;;;2.80;2.60;;;;;;;;;;5032068;28;20272;-78
2021/01/22 03:08:23;;;;;;;2.33;2.13;;;;;;;;;;5022067;28;20191;-79
2021/01/22 03:10:50;;;;;;;2.42;2.22;;;;;;;;;;5029309;28;20213;-79
2021/01/22 03:13:17;;;;;;;2.60;2.20;;;;;;;;;;5033466;28;20206;-79
2021/01/22 03:15:43;;;;;;;2.15;2.00;;;;;;;;;;5033238;28;20189;-79
2021/01/22 03:18:16;;;;;;;2.05;1.88;;;;;;;;;;5033429;28;20248;-79
2021/01/22 03:20:46;;;;;;;3.28;2.97;;;;;;;;;;5033108;28;20210;-78
2021/01/22 03:23:12;;;;;;;3.75;3.45;;;;;;;;;;5033633;28;20174;-79
2021/01/22 03:25:39;;;;;;;4.70;4.20;;;;;;;;;;5029386;28;20555;-81
2021/01/22 03:28:05;;;;;;;4.32;3.75;;;;;;;;;;5032249;28;20254;-80
2021/01/22 03:30:31;;;;;;;7.20;5.00;;;;;;;;;;5024271;28;20198;-79
2021/01/22 03:32:57;;;;;;;5.72;5.22;;;;;;;;;;5027534;28;20197;-79
2021/01/22 03:35:23;;;;;;;5.90;5.40;;;;;;;;;;5032352;28;20178;-79
2021/01/22 03:37:49;;;;;;;5.90;5.33;;;;;;;;;;5031289;28;20182;-78
2021/01/22 03:40:16;;;;;;;5.47;4.97;;;;;;;;;;5032919;28;20484;-80
2021/01/22 03:42:42;;;;;;;7.53;5.40;;;;;;;;;;5030485;28;20511;-79
2021/01/22 03:45:09;;;;;;;5.50;5.10;;;;;;;;;;5033292;28;20602;-79
2021/01/22 03:47:35;;;;;;;6.47;5.82;;;;;;;;;;5032894;28;20186;-79
2021/01/22 03:50:01;;;;;;;7.70;7.00;;;;;;;;;;5032684;28;20189;-79
2021/01/22 03:52:26;;;;;;;6.38;5.88;;;;;;;;;;5032894;28;20468;-78
2021/01/22 03:54:52;;;;;;;7.07;6.38;;;;;;;;;;5032214;28;20643;-79
2021/01/22 03:57:18;;;;;;;8.60;7.70;;;;;;;;;;5025234;28;20178;-79
2021/01/22 03:59:44;;;;;;;8.53;7.73;;;;;;;;;;5013864;28;20417;-79
2021/01/22 04:02:10;;;;;;;8.50;7.67;;;;;;;;;;5014410;28;20540;-79
2021/01/22 04:04:36;;;;;;;8.02;7.25;;;;;;;;;;5018843;28;20417;-81
2021/01/22 04:07:02;;;;;;;8.53;7.63;;;;;;;;;;5032804;28;20194;-79
2021/01/22 04:09:29;;;;;;;8.75;7.85;;;;;;;;;;5032867;28;20435;-78
2021/01/22 04:11:56;;;;;;;9.65;8.65;;;;;;;;;;5023556;28;20210;-79
2021/01/22 04:14:21;;;;;;;7.40;6.65;;;;;;;;;;5025053;28;20210;-79
2021/01/22 04:16:47;;;;;;;7.50;6.70;;;;;;;;;;5032455;28;20259;-78
2021/01/22 04:19:13;;;;;;;6.73;5.73;;;;;;;;;;5031164;28;20425;-78
2021/01/22 04:21:39;;;;;;;5.90;5.30;;;;;;;;;;5032410;28;20930;-78
2021/01/22 04:24:05;;;;;;;6.00;5.20;;;;;;;;;;5014757;28;20288;-78
2021/01/22 04:26:31;;;;;;;5.38;4.25;;;;;;;;;;5024224;28;20435;-79
2021/01/22 04:28:57;;;;;;;5.93;5.20;;;;;;;;;;5031743;28;20266;-80
2021/01/22 04:31:24;;;;;;;7.30;4.70;;;;;;;;;;5031577;28;20472;-78
2021/01/22 04:33:50;;;;;;;5.55;4.45;;;;;;;;;;5017717;28;20432;-80
2021/01/22 04:36:17;;;;;;;5.05;4.55;;;;;;;;;;5012252;28;20167;-80
2021/01/22 04:38:42;;;;;;;4.53;4.13;;;;;;;;;;5024610;28;20179;-78
2021/01/22 04:41:08;;;;;;;5.40;4.67;;;;;;;;;;5031684;28;20190;-78
2021/01/22 04:43:38;;;;;;;5.43;4.27;;;;;;;;;;5031464;28;20859;-79
2021/01/22 04:46:04;;;;;;;5.13;4.63;;;;;;;;;;5027841;28;20816;-78
2021/01/22 04:48:30;;;;;;;6.07;5.22;;;;;;;;;;5014264;28;20261;-79
2021/01/22 04:50:59;;;;;;;5.88;4.95;;;;;;;;;;5011456;28;20199;-79
2021/01/22 04:53:26;;;;;;;6.53;5.68;;;;;;;;;;5021043;28;20646;-79
2021/01/22 04:55:52;;;;;;;8.52;6.18;;;;;;;;;;5031672;28;20533;-78
2021/01/22 04:58:19;;;;;;;8.23;5.25;;;;;;;;;;5031743;28;20246;-79
2021/01/22 05:00:45;;;;;;;7.38;6.55;;;;;;;;;;5033071;28;20260;-79
2021/01/22 05:03:11;;;;;;;7.22;5.90;;;;;;;;;;5027415;28;20175;-79
2021/01/22 05:05:37;;;;;;;6.45;5.75;;;;;;;;;;5013339;28;20175;-78
2021/01/22 05:08:04;;;;;;;6.05;5.00;;;;;;;;;;5027394;28;20255;-79
2021/01/22 05:10:30;;;;;;;7.20;5.88;;;;;;;;;;5031486;28;20206;-79
2021/01/22 05:12:56;;;;;;;6.50;5.38;;;;;;;;;;5022851;28;20183;-78
2021/01/22 05:15:24;;;;;;;5.77;4.73;;;;;;;;;;5014654;28;20182;-78
2021/01/22 05:17:52;;;;;;;7.72;4.72;;;;;;;;;;5013189;28;20414;-79
2021/01/22 05:20:25;;;;;;;8.98;5.22;;;;;;;;;;5022609;28;20185;-79
2021/01/22 05:22:51;;;;;;;6.95;5.75;;;;;;;;;;5013276;28;20183;-79
2021/01/22 05:25:17;;;;;;;9.57;6.30;;;;;;;;;;5011531;28;20183;-79
2021/01/22 05:27:50;;;;;;;8.83;6.03;;;;;;;;;;5023809;28;20562;-79
2021/01/22 05:30:17;;;;;;;7.45;5.82;;;;;;;;;;5031368;28;20479;-78
2021/01/22 05:32:43;;;;;;;6.05;5.45;;;;;;;;;;5022330;28;20216;-79
2021/01/22 05:35:09;;;;;;;7.47;5.50;;;;;;;;;;5029197;28;20240;-79
2021/01/22 05:37:49;;;;;;;12.27;6.28;;;;;;;;;;5029528;28;20247;-78
2021/01/22 05:40:15;;;;;;;6.82;5.07;;;;;;;;;;5030419;28;20181;-78
2021/01/22 05:42:51;;;;;;;7.45;6.75;;;;;;;;;;5030691;28;20186;-78
2021/01/22 05:45:18;;;;;;;8.55;6.53;;;;;;;;;;5030508;28;20178;-77
2021/01/22 05:47:44;;;;;;;9.55;7.22;;;;;;;;;;5030323;28;20193;-78
2021/01/22 05:50:10;;;;;;;7.03;5.88;;;;;;;;;;5033447;28;20182;-77
2021/01/22 05:52:36;;;;;;;9.75;6.03;;;;;;;;;;5028284;28;20199;-78
2021/01/22 05:55:19;;;;;;;8.93;6.72;;;;;;;;;;5033312;28;20182;-78
2021/01/22 05:57:45;;;;;;;9.55;7.60;;;;;;;;;;5035021;28;20189;-77
2021/01/22 06:00:11;;;;;;;11.85;8.75;;;;;;;;;;5031492;28;20209;-77
2021/01/22 06:02:37;;;;;;;15.45;7.85;;;;;;;;;;5035224;28;20179;-77
2021/01/22 06:05:30;;;;;;;10.13;7.00;;;;;;;;;;5029419;28;20185;-77
2021/01/22 06:08:07;;;;;;;11.13;6.97;;;;;;;;;;5031786;28;20467;-76
2021/01/22 06:10:37;;;;;;;8.90;7.60;;;;;;;;;;5031737;28;20259;-77
2021/01/22 06:13:04;;;;;;;11.30;7.07;;;;;;;;;;5033452;28;20614;-77
2021/01/22 06:15:33;;;;;;;10.40;7.55;;;;;;;;;;5033257;28;20236;-77
2021/01/22 06:18:01;;;;;;;10.75;5.65;;;;;;;;;;5033539;28;20549;-77
2021/01/22 06:20:27;;;;;;;11.27;8.10;;;;;;;;;;5035826;28;20643;-77
2021/01/22 06:23:16;;;;;;;7.65;6.63;;;;;;;;;;5040918;28;20182;-77
2021/01/22 06:25:44;;;;;;;12.43;6.68;;;;;;;;;;5039830;28;20190;-77
2021/01/22 06:28:11;;;;;;;8.20;6.40;;;;;;;;;;5034373;28;20178;-77
2021/01/22 06:30:37;;;;;;;7.93;5.93;;;;;;;;;;5033973;28;20198;-77
2021/01/22 06:33:05;;;;;;;6.72;6.03;;;;;;;;;;5033909;28;20227;-77
2021/01/22 06:35:31;;;;;;;7.90;5.90;;;;;;;;;;5035024;28;20196;-77
2021/01/22 06:37:58;;;;;;;9.93;6.80;;;;;;;;;;5033743;28;20174;-77
2021/01/22 06:40:24;;;;;;;8.90;6.72;;;;;;;;;;5034316;28;20373;-77
2021/01/22 06:42:51;;;;;;;9.85;7.45;;;;;;;;;;5034434;28;20186;-77
2021/01/22 06:45:18;;;;;;;20.13;6.70;;;;;;;;;;5033711;28;20182;-77
2021/01/22 06:47:56;;;;;;;7.82;5.18;;;;;;;;;;5033612;28;20261;-77
2021/01/22 06:50:23;;;;;;;9.77;7.78;;;;;;;;;;5034419;28;20202;-77
2021/01/22 06:53:08;;;;;;;7.95;6.50;;;;;;;;;;5032725;28;20243;-77
2021/01/22 06:55:37;;;;;;;10.35;6.93;;;;;;;;;;5033931;28;20642;-78
2021/01/22 06:58:21;;;;;;;8.23;6.20;;;;;;;;;;5033579;28;20178;-77
2021/01/22 07:00:47;;;;;;;7.63;5.97;;;;;;;;;;5032104;28;20284;-77
2021/01/22 07:03:32;;;;;;;10.73;7.32;;;;;;;;;;5033692;28;20221;-77
2021/01/22 07:05:58;;;;;;;9.68;6.00;;;;;;;;;;5029091;28;20577;-77
2021/01/22 07:08:44;;;;;;;9.40;6.27;;;;;;;;;;5033955;28;20166;-77
2021/01/22 07:11:10;;;;;;;6.88;5.70;;;;;;;;;;5033604;28;20468;-77
2021/01/22 07:13:36;;;;;;;8.20;6.10;;;;;;;;;;5035181;28;20668;-78
2021/01/22 07:16:06;;;;;;;6.97;5.30;;;;;;;;;;5036630;28;20661;-76
2021/01/22 07:18:51;;;;;;;5.55;4.93;;;;;;;;;;5037180;28;20646;-77
2021/01/22 07:21:23;;;;;;;5.65;5.15;;;;;;;;;;5034603;28;20796;-77
2021/01/22 07:24:03;;;;;;;6.00;4.95;;;;;;;;;;5025447;28;20208;-77
2021/01/22 07:26:30;;;;;;;6.57;4.85;;;;;;;;;;5036160;28;20185;-77
2021/01/22 07:28:56;;;;;;;5.13;3.88;;;;;;;;;;5036453;28;20179;-77
2021/01/22 07:31:41;;;;;;;5.95;4.55;;;;;;;;;;5035536;28;20206;-77
2021/01/22 07:34:07;;;;;;;4.43;3.97;;;;;;;;;;5051479;28;20653;-77
2021/01/22 07:36:33;;;;;;;6.43;3.65;;;;;;;;;;5032777;28;20175;-77
2021/01/22 07:39:00;;;;;;;4.50;3.63;;;;;;;;;;5016269;28;20537;-77
2021/01/22 07:41:26;;;;;;;4.05;3.55;;;;;;;;;;5035631;28;20476;-77
2021/01/22 07:44:03;;;;;;;4.00;3.47;;;;;;;;;;5045197;28;20197;-77
2021/01/22 07:46:43;;;;;;;2.90;2.65;;;;;;;;;;5044290;28;20416;-77
2021/01/22 07:49:09;;;;;;;5.13;3.67;;;;;;;;;;5046028;28;20208;-77
2021/01/22 07:51:39;;;;;;;4.68;3.80;;;;;;;;;;5041484;28;20206;-77
2021/01/22 07:54:06;;;;;;;5.53;3.13;;;;;;;;;;5038602;28;20680;-77
2021/01/22 07:56:41;;;;;;;4.25;3.55;;;;;;;;;;5038789;28;20586;-77
2021/01/22 07:59:07;;;;;;;4.15;2.92;;;;;;;;;;5038295;28;20181;-77
2021/01/22 08:01:36;;;;;;;4.03;3.67;;;;;;;;;;5038316;28;20194;-77
2021/01/22 08:04:02;;;;;;;3.33;3.00;;;;;;;;;;5038148;28;20188;-77
2021/01/22 08:06:28;;;;;;;3.17;2.67;;;;;;;;;;5038570;28;20181;-77
2021/01/22 08:09:06;;;;;;;5.43;3.40;;;;;;;;;;5023131;28;20179;-77
2021/01/22 08:11:32;;;;;;;5.28;3.10;;;;;;;;;;5034410;28;20984;-77
2021/01/22 08:13:58;;;;;;;4.30;2.90;;;;;;;;;;5037841;28;20171;-78
2021/01/22 08:16:24;;;;;;;2.92;2.30;;;;;;;;;;5038667;28;20405;-78
2021/01/22 08:18:51;;;;;;;3.40;2.92;;;;;;;;;;5036921;28;20240;-78
2021/01/22 08:21:17;;;;;;;3.75;2.80;;;;;;;;;;5037949;28;20719;-77
2021/01/22 08:23:44;;;;;;;2.83;2.53;;;;;;;;;;5037258;28;20186;-77
2021/01/22 08:26:13;;;;;;;4.25;2.50;;;;;;;;;;5036057;28;20186;-77
2021/01/22 08:28:40;;;;;;;3.25;2.15;;;;;;;;;;5037766;28;20175;-77
2021/01/22 08:31:09;;;;;;;3.25;2.45;;;;;;;;;;5037233;28;20674;-77
2021/01/22 08:33:36;;;;;;;6.53;2.33;;;;;;;;;;5028424;28;20179;-77
2021/01/22 08:36:02;;;;;;;2.67;2.47;;;;;;;;;;5017885;28;20210;-76
2021/01/22 08:38:28;;;;;;;3.78;2.45;;;;;;;;;;5021655;28;20582;-76
2021/01/22 08:40:54;;;;;;;3.42;2.20;;;;;;;;;;5016295;28;20202;-78
2021/01/22 08:43:20;;;;;;;2.53;2.30;;;;;;;;;;5033540;28;20224;-77
2021/01/22 08:46:07;;;;;;;3.05;2.75;;;;;;;;;;5034258;28;20405;-77
2021/01/22 08:48:36;;;;;;;2.92;2.08;;;;;;;;;;5037898;28;20223;-77
2021/01/22 08:51:02;;;;;;;1.73;1.42;;;;;;;;;;5037432;28;20220;-78
2021/01/22 08:53:28;;;;;;;4.05;2.15;;;;;;;;;;5035861;28;20179;-77
2021/01/22 08:56:13;;;;;;;2.88;2.53;;;;;;;;;;5022198;28;20252;-77
2021/01/22 08:58:57;;;;;;;1.52;1.42;;;;;;;;;;5019169;28;20242;-77
2021/01/22 09:01:23;;;;;;;2.53;2.05;;;;;;;;;;5027125;28;20201;-77
2021/01/22 09:03:49;;;;;;;1.95;1.75;;;;;;;;;;5035648;28;20179;-77
2021/01/22 09:06:15;;;;;;;1.83;1.73;;;;;;;;;;5036850;28;20248;-77
2021/01/22 09:09:00;;;;;;;2.67;1.70;;;;;;;;;;5037809;28;20419;-77
2021/01/22 09:11:39;;;;;;;2.40;1.80;;;;;;;;;;5035804;28;20217;-77
2021/01/22 09:14:05;;;;;;;4.80;2.00;;;;;;;;;;5035651;28;20232;-77
2021/01/22 09:16:31;;;;;;;2.30;1.55;;;;;;;;;;5034165;28;20224;-76
2021/01/22 09:19:00;;;;;;;2.30;1.88;;;;;;;;;;5031372;28;20181;-75
2021/01/22 09:21:27;;;;;;;2.20;1.90;;;;;;;;;;5031721;28;20236;-75
2021/01/22 09:23:53;;;;;;;2.35;2.10;;;;;;;;;;5031908;28;20216;-75
2021/01/22 09:26:19;;;;;;;4.35;1.50;;;;;;;;;;5030957;28;20182;-75
2021/01/22 09:28:46;;;;;;;3.35;2.30;;;;;;;;;;5031523;28;20642;-76
2021/01/22 09:31:12;;;;;;;1.67;1.52;;;;;;;;;;5032763;28;20206;-77
2021/01/22 09:33:37;;;;;;;1.50;1.40;;;;;;;;;;5035097;28;20179;-76
2021/01/22 09:36:04;;;;;;;1.80;1.70;;;;;;;;;;5035686;28;20405;-77
2021/01/22 09:38:30;;;;;;;2.40;2.20;;;;;;;;;;5034870;28;20935;-77
2021/01/22 09:40:55;;;;;;;2.23;1.70;;;;;;;;;;5023047;28;20207;-76
2021/01/22 09:43:21;;;;;;;2.90;1.90;;;;;;;;;;5035505;28;20511;-77
2021/01/22 09:45:47;;;;;;;2.33;2.10;;;;;;;;;;5038074;28;20443;-77
2021/01/22 09:48:16;;;;;;;1.83;1.67;;;;;;;;;;5036826;28;20182;-77
2021/01/22 09:50:42;;;;;;;3.72;1.50;;;;;;;;;;5037369;28;20461;-77
2021/01/22 09:53:08;;;;;;;2.40;1.90;;;;;;;;;;5038515;28;20175;-77
2021/01/22 09:55:35;;;;;;;4.17;2.37;;;;;;;;;;5035534;28;20442;-78
2021/01/22 09:58:00;;;;;;;2.80;2.03;;;;;;;;;;5038370;28;20405;-77
2021/01/22 10:00:26;;;;;;;3.30;2.63;;;;;;;;;;5038465;28;20201;-77
2021/01/22 10:02:52;;;;;;;3.38;2.15;;;;;;;;;;5039837;28;20445;-79
2021/01/22 10:05:18;;;;;;;6.03;2.30;;;;;;;;;;5030503;28;20232;-75
2021/01/22 10:07:45;;;;;;;2.60;2.40;;;;;;;;;;5030866;28;20474;-75
2021/01/22 10:10:11;;;;;;;4.72;1.80;;;;;;;;;;5030706;28;20495;-74
2021/01/22 10:12:37;;;;;;;4.13;2.95;;;;;;;;;;5050017;22;20244;-78
2021/01/22 10:15:04;;;;;;;3.23;2.00;;;;;;;;;;5039994;28;20182;-77
2021/01/22 10:17:29;;;;;;;3.70;2.17;;;;;;;;;;5037933;28;20416;-78
2021/01/22 10:19:55;;;;;;;2.53;2.15;;;;;;;;;;5038963;28;20175;-77
2021/01/22 10:22:21;;;;;;;10.20;2.67;;;;;;;;;;5037907;28;20664;-78
2021/01/22 10:24:47;;;;;;;2.60;2.17;;;;;;;;;;5038131;28;20994;-78
2021/01/22 10:27:13;;;;;;;3.83;2.30;;;;;;;;;;5034716;28;20525;-76
2021/01/22 10:29:39;;;;;;;2.50;2.17;;;;;;;;;;5030619;28;20409;-76
2021/01/22 10:32:05;;;;;;;3.83;3.43;;;;;;;;;;5030524;28;20217;-76
2021/01/22 10:34:31;;;;;;;3.53;2.63;;;;;;;;;;5031541;28;20500;-75
2021/01/22 10:36:57;;;;;;;4.20;3.00;;;;;;;;;;5031472;28;20417;-75
2021/01/22 10:39:23;;;;;;;3.10;2.80;;;;;;;;;;5028075;28;20505;-76
2021/01/22 10:41:49;;;;;;;3.93;2.20;;;;;;;;;;5032650;28;20452;-77
2021/01/22 10:44:15;;;;;;;2.70;2.50;;;;;;;;;;5034213;28;20416;-77
2021/01/22 10:46:42;;;;;;;3.03;2.60;;;;;;;;;;5034104;28;20413;-77
2021/01/22 10:49:08;;;;;;;4.68;3.00;;;;;;;;;;5036600;28;20269;-76
2021/01/22 10:51:34;;;;;;;3.13;2.92;;;;;;;;;;5037708;28;20237;-77
2021/01/22 10:54:00;;;;;;;5.03;3.83;;;;;;;;;;5038507;28;20205;-76
2021/01/22 10:56:26;;;;;;;3.90;3.17;;;;;;;;;;5038066;28;20415;-75
2021/01/22 10:58:52;;;;;;;7.23;2.83;;;;;;;;;;5034750;28;20523;-75
2021/01/22 11:01:18;;;;;;;4.45;2.67;;;;;;;;;;5037022;28;20454;-76
2021/01/22 11:03:44;;;;;;;7.77;4.07;;;;;;;;;;5036947;28;20202;-74
2021/01/22 11:06:10;;;;;;;4.28;3.30;;;;;;;;;;5037067;28;20416;-76
2021/01/22 11:08:36;;;;;;;3.53;3.20;;;;;;;;;;5041682;28;20182;-77
2021/01/22 11:11:02;;;;;;;6.53;3.33;;;;;;;;;;5051997;28;20455;-76
2021/01/22 11:13:28;;;;;;;5.72;4.20;;;;;;;;;;5037797;28;20915;-76
2021/01/22 11:15:54;;;;;;;4.30;3.53;;;;;;;;;;5056804;28;20177;-74
2021/01/22 11:18:20;;;;;;;3.50;3.20;;;;;;;;;;5062445;28;20412;-76
2021/01/22 11:20:46;;;;;;;3.63;3.07;;;;;;;;;;5060814;28;20184;-76
2021/01/22 11:23:12;;;;;;;6.05;3.35;;;;;;;;;;5055792;28;20424;-74
2021/01/22 11:25:38;;;;;;;8.93;3.20;;;;;;;;;;5045725;28;20228;-75
2021/01/22 11:28:04;;;;;;;3.50;2.93;;;;;;;;;;5030265;28;20460;-75
2021/01/22 11:30:30;;;;;;;4.00;3.42;;;;;;;;;;5033781;28;20428;-76
2021/01/22 11:32:58;;;;;;;3.03;2.75;;;;;;;;;;5034276;28;20210;-75
2021/01/22 11:35:24;;;;;;;6.25;3.80;;;;;;;;;;5012871;28;20175;-76
2021/01/22 11:37:51;;;;;;;5.75;3.30;;;;;;;;;;5028923;28;20261;-76
2021/01/22 11:40:18;;;;;;;5.78;2.85;;;;;;;;;;5035153;28;20170;-75
2021/01/22 11:42:44;;;;;;;3.00;2.80;;;;;;;;;;5034215;28;20365;-77
2021/01/22 11:45:10;;;;;;;4.97;2.97;;;;;;;;;;5036236;28;20198;-76
2021/01/22 11:47:38;;;;;;;3.72;3.30;;;;;;;;;;5035073;28;20174;-75
2021/01/22 11:50:04;;;;;;;5.13;3.63;;;;;;;;;;5034355;28;20205;-77
2021/01/22 11:52:30;;;;;;;4.32;3.22;;;;;;;;;;5035203;28;20202;-77
2021/01/22 11:54:56;;;;;;;4.73;3.67;;;;;;;;;;5033932;28;20193;-77
2021/01/22 11:57:22;;;;;;;4.53;2.97;;;;;;;;;;5032259;28;20510;-77
2021/01/22 11:59:48;;;;;;;5.37;3.20;;;;;;;;;;5034519;28;20405;-76
2021/01/22 12:02:14;;;;;;;4.43;3.17;;;;;;;;;;5033660;28;20439;-75
2021/01/22 12:04:40;;;;;;;6.30;3.10;;;;;;;;;;5032690;28;20441;-75
2021/01/22 12:07:05;;;;;;;3.40;2.70;;;;;;;;;;5036481;28;20523;-76
2021/01/22 12:09:31;;;;;;;3.40;3.10;;;;;;;;;;5022860;28;20452;-76
2021/01/22 12:11:57;;;;;;;6.03;3.30;;;;;;;;;;5032768;28;20514;-76
2021/01/22 12:14:23;;;;;;;3.58;2.97;;;;;;;;;;5032971;28;20174;-75
2021/01/22 12:16:49;;;;;;;3.53;3.00;;;;;;;;;;5033531;28;20659;-75
2021/01/22 12:19:16;;;;;;;8.07;3.70;;;;;;;;;;5032778;28;20412;-75
2021/01/22 12:21:42;;;;;;;6.78;4.75;;;;;;;;;;5031588;28;20428;-75
2021/01/22 12:24:08;;;;;;;2.90;2.70;;;;;;;;;;5032419;28;20209;-77
2021/01/22 12:26:34;;;;;;;4.28;2.95;;;;;;;;;;5030202;28;20793;-74
2021/01/22 12:29:00;;;;;;;3.10;2.80;;;;;;;;;;5031806;28;20253;-75
2021/01/22 12:31:26;;;;;;;3.53;3.10;;;;;;;;;;5031933;28;20549;-76
2021/01/22 12:33:52;;;;;;;8.13;3.60;;;;;;;;;;5032163;28;20601;-74
2021/01/22 12:36:18;;;;;;;4.60;3.17;;;;;;;;;;5032091;28;20470;-75
2021/01/22 12:38:44;;;;;;;9.48;3.67;;;;;;;;;;5032032;28;20616;-75
2021/01/22 12:41:10;;;;;;;4.50;3.00;;;;;;;;;;5032317;28;20174;-74
2021/01/22 12:43:38;;;;;;;4.73;3.87;;;;;;;;;;5031948;28;20459;-75
2021/01/22 12:46:04;;;;;;;5.88;3.70;;;;;;;;;;5031992;28;20409;-74
2021/01/22 12:48:30;;;;;;;5.05;3.08;;;;;;;;;;5031851;28;20252;-74
2021/01/22 12:50:57;;;;;;;5.18;3.40;;;;;;;;;;5031809;28;20331;-74
2021/01/22 12:53:23;;;;;;;3.95;3.22;;;;;;;;;;5031591;28;20244;-74
2021/01/22 12:55:49;;;;;;;3.77;2.80;;;;;;;;;;5030024;28;20277;-75
2021/01/22 12:58:15;;;;;;;6.83;3.47;;;;;;;;;;5031141;28;20405;-75
2021/01/22 13:00:41;;;;;;;3.30;3.05;;;;;;;;;;5018907;28;20448;-75
2021/01/22 13:03:07;;;;;;;4.25;2.70;;;;;;;;;;5032066;28;20588;-75
2021/01/22 13:05:33;;;;;;;3.55;3.17;;;;;;;;;;5022096;28;20175;-75
2021/01/22 13:07:59;;;;;;;3.22;2.97;;;;;;;;;;5016685;28;20182;-75
2021/01/22 13:10:25;;;;;;;3.13;2.92;;;;;;;;;;5032309;28;20178;-74
2021/01/22 13:12:52;;;;;;;3.10;2.70;;;;;;;;;;5049247;28;20967;-75
2021/01/22 13:15:18;;;;;;;3.30;3.00;;;;;;;;;;5031698;28;20171;-74
2021/01/22 13:17:44;;;;;;;3.15;2.95;;;;;;;;;;5031030;28;20175;-75
2021/01/22 13:20:10;;;;;;;3.22;3.00;;;;;;;;;;5031710;28;20183;-75
2021/01/22 13:22:36;;;;;;;3.55;3.00;;;;;;;;;;5030147;28;20198;-75
2021/01/22 13:25:03;;;;;;;4.68;2.70;;;;;;;;;;5028190;28;20217;-74
2021/01/22 13:27:30;;;;;;;5.65;2.88;;;;;;;;;;5030998;28;20176;-75
2021/01/22 13:29:55;;;;;;;2.90;2.60;;;;;;;;;;5031318;28;20173;-75
2021/01/22 13:32:22;;;;;;;6.30;2.93;;;;;;;;;;5031045;28;20229;-75
2021/01/22 13:34:48;;;;;;;4.20;2.60;;;;;;;;;;5029569;28;20496;-75
2021/01/22 13:37:14;;;;;;;6.53;2.78;;;;;;;;;;5029851;28;20265;-75
2021/01/22 13:39:40;;;;;;;9.02;3.35;;;;;;;;;;5031175;28;20170;-75
2021/01/22 13:42:06;;;;;;;2.47;2.10;;;;;;;;;;5030754;28;20209;-74
2021/01/22 13:44:32;;;;;;;3.43;3.23;;;;;;;;;;5030644;28;20182;-74
2021/01/22 13:46:58;;;;;;;5.53;2.60;;;;;;;;;;5031242;28;20441;-75
2021/01/22 13:49:24;;;;;;;4.07;2.97;;;;;;;;;;5030733;28;20937;-75
2021/01/22 13:51:50;;;;;;;2.90;2.70;;;;;;;;;;5031082;28;20210;-75
2021/01/22 13:54:16;;;;;;;3.90;3.10;;;;;;;;;;5020908;28;20422;-75
2021/01/22 13:56:42;;;;;;;4.20;3.80;;;;;;;;;;5011350;28;20815;-75
2021/01/22 13:59:09;;;;;;;3.83;3.50;;;;;;;;;;5021131;28;20451;-74
2021/01/22 14:01:35;;;;;;;6.13;3.80;;;;;;;;;;5030630;28;20952;-74
2021/01/22 14:04:01;;;;;;;7.23;3.47;;;;;;;;;;5030811;28;20194;-74
2021/01/22 14:06:27;;;;;;;3.83;3.20;;;;;;;;;;5030891;28;20437;-75
2021/01/22 14:08:53;;;;;;;4.40;3.53;;;;;;;;;;5041168;28;20424;-75
2021/01/22 14:11:19;;;;;;;5.20;3.93;;;;;;;;;;5032942;28;20495;-75
2021/01/22 14:13:45;;;;;;;4.55;3.80;;;;;;;;;;5034429;28;20447;-75
2021/01/22 14:16:11;;;;;;;4.30;3.60;;;;;;;;;;5039044;28;20178;-74
2021/01/22 14:18:37;;;;;;;4.00;3.00;;;;;;;;;;5029630;28;20190;-75
2021/01/22 14:21:03;;;;;;;3.27;3.07;;;;;;;;;;5030685;28;20500;-74
2021/01/22 14:23:29;;;;;;;5.47;2.92;;;;;;;;;;5031468;28;20456;-75
2021/01/22 14:25:55;;;;;;;3.70;2.70;;;;;;;;;;5022745;28;20187;-75
2021/01/22 14:28:21;;;;;;;3.08;2.45;;;;;;;;;;5024017;28;20498;-72
2021/01/22 14:30:47;;;;;;;2.63;2.00;;;;;;;;;;5034808;28;20648;-72
2021/01/22 14:33:13;;;;;;;9.20;2.88;;;;;;;;;;5033071;28;20214;-72
2021/01/22 14:35:39;;;;;;;2.92;2.13;;;;;;;;;;5034104;28;20181;-73
2021/01/22 14:38:05;;;;;;;5.90;2.33;;;;;;;;;;5033474;28;20182;-73
2021/01/22 14:40:31;;;;;;;9.67;2.50;;;;;;;;;;5032304;28;20429;-73
2021/01/22 14:42:57;;;;;;;4.30;2.30;;;;;;;;;;5033308;28;20998;-74
2021/01/22 14:45:23;;;;;;;2.87;2.00;;;;;;;;;;5033413;28;20446;-74